Mahres, Tunisia
Current Conditions -  °F | °C
As of 1:00 PM on Thursday 23 Oct 2014 (Local Time) from DTTX Reporting Station
Few Clouds Few Clouds  
Wind Chill: 75°   Ceiling: Unl
Heat Index: 75°   Visibility: 6mi
Dew Point: 41°   Wind: 16mph
Humidity: 29%   Direction: 330°NNW
Pressure: 29.97"   Gusts: 28mph
Location:  34.53°N, 10.5°E
Report Text: DTTX 231200Z 33014G24KT 9999 FEW033 24/05 Q1015 NOSIG
Loading
Personal Weather Stations






























Interactive Weather Map
Tropical Storm Tracking
New forecast layout! Learn more

10-Day Weather Forecast

Advertisements
Track Severe Weather on mobile